sensor_id;sensor_type;location;lat;lon;timestamp;P1;durP1;ratioP1;P2;durP2;ratioP2
20739;SDS011;10530;49.968;19.844;2022-08-01T00:02:13;17.05;;;8.40;;
20739;SDS011;10530;49.968;19.844;2022-08-01T00:07:16;24.98;;;10.10;;
20739;SDS011;10530;49.968;19.844;2022-08-01T00:12:20;18.98;;;9.45;;
20739;SDS011;10530;49.968;19.844;2022-08-01T00:17:23;21.00;;;9.25;;
20739;SDS011;10530;49.968;19.844;2022-08-01T00:22:25;17.80;;;8.87;;
20739;SDS011;10530;49.968;19.844;2022-08-01T00:27:29;16.55;;;8.43;;
20739;SDS011;10530;49.968;19.844;2022-08-01T00:32:38;19.15;;;8.73;;
20739;SDS011;10530;49.968;19.844;2022-08-01T00:37:41;19.17;;;8.35;;
20739;SDS011;10530;49.968;19.844;2022-08-01T00:42:44;13.32;;;7.53;;
20739;SDS011;10530;49.968;19.844;2022-08-01T00:47:47;19.23;;;8.97;;
20739;SDS011;10530;49.968;19.844;2022-08-01T00:52:56;19.92;;;9.95;;
20739;SDS011;10530;49.968;19.844;2022-08-01T00:58:00;18.02;;;8.82;;
20739;SDS011;10530;49.968;19.844;2022-08-01T01:03:06;16.35;;;7.75;;
20739;SDS011;10530;49.968;19.844;2022-08-01T01:08:22;15.43;;;7.65;;
20739;SDS011;10530;49.968;19.844;2022-08-01T01:13:37;16.90;;;7.20;;
20739;SDS011;10530;49.968;19.844;2022-08-01T01:18:52;11.32;;;6.50;;
20739;SDS011;10530;49.968;19.844;2022-08-01T01:29:30;10.68;;;5.57;;
20739;SDS011;10530;49.968;19.844;2022-08-01T01:34:57;9.65;;;5.85;;
20739;SDS011;10530;49.968;19.844;2022-08-01T01:40:03;10.00;;;5.50;;
20739;SDS011;10530;49.968;19.844;2022-08-01T01:45:08;13.25;;;5.90;;
20739;SDS011;10530;49.968;19.844;2022-08-01T01:50:11;11.88;;;5.90;;
20739;SDS011;10530;49.968;19.844;2022-08-01T01:55:15;11.13;;;6.03;;
20739;SDS011;10530;49.968;19.844;2022-08-01T02:00:21;12.63;;;6.07;;
20739;SDS011;10530;49.968;19.844;2022-08-01T02:05:27;13.07;;;6.27;;
20739;SDS011;10530;49.968;19.844;2022-08-01T02:10:31;13.75;;;6.72;;
20739;SDS011;10530;49.968;19.844;2022-08-01T02:15:36;12.50;;;6.18;;
20739;SDS011;10530;49.968;19.844;2022-08-01T02:21:01;12.25;;;6.53;;
20739;SDS011;10530;49.968;19.844;2022-08-01T02:26:09;15.90;;;6.57;;
20739;SDS011;10530;49.968;19.844;2022-08-01T02:31:16;12.20;;;6.27;;
20739;SDS011;10530;49.968;19.844;2022-08-01T02:36:21;14.13;;;7.38;;
20739;SDS011;10530;49.968;19.844;2022-08-01T02:41:33;15.18;;;8.25;;
20739;SDS011;10530;49.968;19.844;2022-08-01T02:46:43;15.77;;;7.47;;
20739;SDS011;10530;49.968;19.844;2022-08-01T02:52:00;16.73;;;7.90;;
20739;SDS011;10530;49.968;19.844;2022-08-01T02:57:08;18.43;;;8.00;;
20739;SDS011;10530;49.968;19.844;2022-08-01T03:02:14;28.90;;;7.85;;
20739;SDS011;10530;49.968;19.844;2022-08-01T03:07:20;17.98;;;7.68;;
20739;SDS011;10530;49.968;19.844;2022-08-01T03:12:25;16.85;;;7.80;;
20739;SDS011;10530;49.968;19.844;2022-08-01T03:17:31;15.55;;;7.10;;
20739;SDS011;10530;49.968;19.844;2022-08-01T03:22:36;15.50;;;6.97;;
20739;SDS011;10530;49.968;19.844;2022-08-01T03:27:41;13.88;;;6.43;;
20739;SDS011;10530;49.968;19.844;2022-08-01T03:32:47;18.70;;;6.68;;
20739;SDS011;10530;49.968;19.844;2022-08-01T03:37:52;34.60;;;6.43;;
20739;SDS011;10530;49.968;19.844;2022-08-01T03:49:00;14.70;;;6.73;;
20739;SDS011;10530;49.968;19.844;2022-08-01T03:54:08;12.45;;;6.72;;
20739;SDS011;10530;49.968;19.844;2022-08-01T03:59:12;12.93;;;6.60;;
20739;SDS011;10530;49.968;19.844;2022-08-01T04:04:18;12.23;;;5.53;;
20739;SDS011;10530;49.968;19.844;2022-08-01T04:09:24;12.15;;;6.18;;
20739;SDS011;10530;49.968;19.844;2022-08-01T04:14:27;12.87;;;5.57;;
20739;SDS011;10530;49.968;19.844;2022-08-01T04:19:30;13.18;;;6.72;;
20739;SDS011;10530;49.968;19.844;2022-08-01T04:24:33;15.23;;;8.20;;
20739;SDS011;10530;49.968;19.844;2022-08-01T04:29:39;22.98;;;9.90;;
20739;SDS011;10530;49.968;19.844;2022-08-01T04:34:43;21.08;;;9.32;;
20739;SDS011;10530;49.968;19.844;2022-08-01T04:39:48;22.90;;;11.13;;
20739;SDS011;10530;49.968;19.844;2022-08-01T04:44:54;23.33;;;11.05;;
20739;SDS011;10530;49.968;19.844;2022-08-01T04:49:57;22.70;;;10.80;;
20739;SDS011;10530;49.968;19.844;2022-08-01T04:55:01;20.50;;;10.30;;
20739;SDS011;10530;49.968;19.844;2022-08-01T05:00:05;18.92;;;9.27;;
20739;SDS011;10530;49.968;19.844;2022-08-01T05:05:09;18.23;;;9.60;;
20739;SDS011;10530;49.968;19.844;2022-08-01T05:10:14;19.08;;;9.10;;
20739;SDS011;10530;49.968;19.844;2022-08-01T05:15:17;17.50;;;9.38;;
20739;SDS011;10530;49.968;19.844;2022-08-01T05:20:20;20.08;;;10.82;;
20739;SDS011;10530;49.968;19.844;2022-08-01T05:25:23;19.80;;;9.90;;
20739;SDS011;10530;49.968;19.844;2022-08-01T05:30:46;24.30;;;10.17;;
20739;SDS011;10530;49.968;19.844;2022-08-01T05:35:49;25.15;;;11.10;;
20739;SDS011;10530;49.968;19.844;2022-08-01T05:40:52;35.15;;;13.98;;
20739;SDS011;10530;49.968;19.844;2022-08-01T05:45:55;23.10;;;10.30;;
20739;SDS011;10530;49.968;19.844;2022-08-01T05:50:58;14.05;;;7.40;;
20739;SDS011;10530;49.968;19.844;2022-08-01T05:56:01;13.13;;;7.27;;
20739;SDS011;10530;49.968;19.844;2022-08-01T06:01:05;12.35;;;6.95;;
20739;SDS011;10530;49.968;19.844;2022-08-01T06:06:08;11.23;;;6.47;;
20739;SDS011;10530;49.968;19.844;2022-08-01T06:11:12;10.73;;;6.38;;
20739;SDS011;10530;49.968;19.844;2022-08-01T06:16:15;11.10;;;6.35;;
20739;SDS011;10530;49.968;19.844;2022-08-01T06:21:18;11.87;;;6.60;;
20739;SDS011;10530;49.968;19.844;2022-08-01T06:26:21;11.15;;;6.10;;
20739;SDS011;10530;49.968;19.844;2022-08-01T06:31:24;12.95;;;5.63;;
20739;SDS011;10530;49.968;19.844;2022-08-01T06:36:34;10.15;;;5.80;;
20739;SDS011;10530;49.968;19.844;2022-08-01T06:41:37;11.93;;;5.60;;
20739;SDS011;10530;49.968;19.844;2022-08-01T06:46:39;14.57;;;5.80;;
20739;SDS011;10530;49.968;19.844;2022-08-01T06:51:42;9.85;;;5.10;;
20739;SDS011;10530;49.968;19.844;2022-08-01T06:56:45;10.00;;;5.63;;
20739;SDS011;10530;49.968;19.844;2022-08-01T07:01:49;11.95;;;5.53;;
20739;SDS011;10530;49.968;19.844;2022-08-01T07:06:52;9.80;;;5.70;;
20739;SDS011;10530;49.968;19.844;2022-08-01T07:11:56;10.13;;;5.70;;
20739;SDS011;10530;49.968;19.844;2022-08-01T07:16:59;11.45;;;5.35;;
20739;SDS011;10530;49.968;19.844;2022-08-01T07:22:02;11.02;;;5.72;;
20739;SDS011;10530;49.968;19.844;2022-08-01T07:27:06;9.98;;;5.25;;
20739;SDS011;10530;49.968;19.844;2022-08-01T07:32:25;11.73;;;5.03;;
20739;SDS011;10530;49.968;19.844;2022-08-01T07:37:28;8.13;;;4.97;;
20739;SDS011;10530;49.968;19.844;2022-08-01T07:42:51;8.68;;;4.68;;
20739;SDS011;10530;49.968;19.844;2022-08-01T07:47:54;10.27;;;5.20;;
20739;SDS011;10530;49.968;19.844;2022-08-01T07:52:57;6.63;;;4.05;;
20739;SDS011;10530;49.968;19.844;2022-08-01T07:58:00;7.85;;;4.07;;
20739;SDS011;10530;49.968;19.844;2022-08-01T08:03:04;8.97;;;4.07;;
20739;SDS011;10530;49.968;19.844;2022-08-01T08:08:08;5.70;;;3.70;;
20739;SDS011;10530;49.968;19.844;2022-08-01T08:13:12;11.90;;;4.30;;
20739;SDS011;10530;49.968;19.844;2022-08-01T08:18:15;5.80;;;3.10;;
20739;SDS011;10530;49.968;19.844;2022-08-01T08:23:18;5.38;;;2.97;;
20739;SDS011;10530;49.968;19.844;2022-08-01T08:28:44;6.10;;;3.03;;
20739;SDS011;10530;49.968;19.844;2022-08-01T08:33:48;5.65;;;2.75;;
20739;SDS011;10530;49.968;19.844;2022-08-01T08:38:51;5.80;;;3.00;;
20739;SDS011;10530;49.968;19.844;2022-08-01T08:43:54;4.10;;;2.67;;
20739;SDS011;10530;49.968;19.844;2022-08-01T08:48:59;5.43;;;2.85;;
20739;SDS011;10530;49.968;19.844;2022-08-01T08:54:07;6.17;;;3.03;;
20739;SDS011;10530;49.968;19.844;2022-08-01T08:59:12;5.60;;;2.83;;
20739;SDS011;10530;49.968;19.844;2022-08-01T09:04:16;5.20;;;2.70;;
20739;SDS011;10530;49.968;19.844;2022-08-01T09:09:23;5.47;;;2.60;;
20739;SDS011;10530;49.968;19.844;2022-08-01T09:14:26;5.25;;;2.50;;
20739;SDS011;10530;49.968;19.844;2022-08-01T09:19:39;6.30;;;2.30;;
20739;SDS011;10530;49.968;19.844;2022-08-01T09:24:56;5.13;;;2.28;;
20739;SDS011;10530;49.968;19.844;2022-08-01T09:30:10;5.20;;;2.65;;
20739;SDS011;10530;49.968;19.844;2022-08-01T09:35:27;4.85;;;2.47;;
20739;SDS011;10530;49.968;19.844;2022-08-01T09:40:55;5.32;;;2.65;;
20739;SDS011;10530;49.968;19.844;2022-08-01T09:46:02;4.57;;;2.57;;
20739;SDS011;10530;49.968;19.844;2022-08-01T09:51:13;4.65;;;2.50;;
20739;SDS011;10530;49.968;19.844;2022-08-01T09:56:54;6.93;;;2.55;;
20739;SDS011;10530;49.968;19.844;2022-08-01T10:02:10;4.93;;;2.70;;
20739;SDS011;10530;49.968;19.844;2022-08-01T10:07:21;6.30;;;2.80;;
20739;SDS011;10530;49.968;19.844;2022-08-01T10:12:44;4.60;;;2.63;;
20739;SDS011;10530;49.968;19.844;2022-08-01T10:17:53;5.45;;;2.50;;
20739;SDS011;10530;49.968;19.844;2022-08-01T10:23:03;4.20;;;2.50;;
20739;SDS011;10530;49.968;19.844;2022-08-01T10:28:14;4.20;;;2.40;;
20739;SDS011;10530;49.968;19.844;2022-08-01T10:33:24;5.38;;;2.63;;
20739;SDS011;10530;49.968;19.844;2022-08-01T10:38:47;6.10;;;2.40;;
20739;SDS011;10530;49.968;19.844;2022-08-01T10:43:50;5.22;;;2.50;;
20739;SDS011;10530;49.968;19.844;2022-08-01T10:49:01;5.18;;;2.50;;
20739;SDS011;10530;49.968;19.844;2022-08-01T10:54:10;5.68;;;2.55;;
20739;SDS011;10530;49.968;19.844;2022-08-01T10:59:20;4.68;;;2.42;;
20739;SDS011;10530;49.968;19.844;2022-08-01T11:10:03;4.88;;;2.47;;
20739;SDS011;10530;49.968;19.844;2022-08-01T11:15:16;4.82;;;2.47;;
20739;SDS011;10530;49.968;19.844;2022-08-01T11:20:32;4.75;;;2.40;;
20739;SDS011;10530;49.968;19.844;2022-08-01T11:41:37;4.90;;;2.38;;
20739;SDS011;10530;49.968;19.844;2022-08-01T11:46:51;6.65;;;2.40;;
20739;SDS011;10530;49.968;19.844;2022-08-01T11:52:09;4.10;;;2.30;;
20739;SDS011;10530;49.968;19.844;2022-08-01T11:57:19;5.77;;;2.30;;
20739;SDS011;10530;49.968;19.844;2022-08-01T12:02:31;5.10;;;2.20;;
20739;SDS011;10530;49.968;19.844;2022-08-01T12:07:39;5.25;;;2.30;;
20739;SDS011;10530;49.968;19.844;2022-08-01T12:18:09;5.28;;;2.40;;
20739;SDS011;10530;49.968;19.844;2022-08-01T12:23:13;4.73;;;2.27;;
20739;SDS011;10530;49.968;19.844;2022-08-01T12:28:17;15.05;;;3.30;;
20739;SDS011;10530;49.968;19.844;2022-08-01T12:33:21;5.45;;;2.80;;
20739;SDS011;10530;49.968;19.844;2022-08-01T12:38:24;6.60;;;3.22;;
20739;SDS011;10530;49.968;19.844;2022-08-01T12:43:28;5.65;;;2.92;;
20739;SDS011;10530;49.968;19.844;2022-08-01T12:48:33;5.13;;;2.90;;
20739;SDS011;10530;49.968;19.844;2022-08-01T12:53:37;5.30;;;3.00;;
20739;SDS011;10530;49.968;19.844;2022-08-01T12:58:42;6.35;;;3.30;;
20739;SDS011;10530;49.968;19.844;2022-08-01T13:04:01;4.93;;;2.97;;
20739;SDS011;10530;49.968;19.844;2022-08-01T13:09:08;4.88;;;3.13;;
20739;SDS011;10530;49.968;19.844;2022-08-01T13:14:26;4.83;;;2.73;;
20739;SDS011;10530;49.968;19.844;2022-08-01T13:19:43;5.85;;;3.22;;
20739;SDS011;10530;49.968;19.844;2022-08-01T13:24:46;6.93;;;3.70;;
20739;SDS011;10530;49.968;19.844;2022-08-01T13:29:49;5.40;;;3.70;;
20739;SDS011;10530;49.968;19.844;2022-08-01T13:35:04;6.22;;;3.75;;
20739;SDS011;10530;49.968;19.844;2022-08-01T13:40:10;8.20;;;4.10;;
20739;SDS011;10530;49.968;19.844;2022-08-01T13:45:13;6.72;;;4.20;;
20739;SDS011;10530;49.968;19.844;2022-08-01T13:50:16;7.13;;;4.30;;
20739;SDS011;10530;49.968;19.844;2022-08-01T13:55:19;6.90;;;4.53;;
20739;SDS011;10530;49.968;19.844;2022-08-01T14:00:22;8.13;;;4.40;;
20739;SDS011;10530;49.968;19.844;2022-08-01T14:05:26;6.97;;;4.87;;
20739;SDS011;10530;49.968;19.844;2022-08-01T14:10:28;7.05;;;5.00;;
20739;SDS011;10530;49.968;19.844;2022-08-01T14:15:32;8.65;;;4.70;;
20739;SDS011;10530;49.968;19.844;2022-08-01T14:20:40;6.72;;;4.60;;
20739;SDS011;10530;49.968;19.844;2022-08-01T14:25:43;6.18;;;4.72;;
20739;SDS011;10530;49.968;19.844;2022-08-01T14:31:06;9.10;;;5.17;;
20739;SDS011;10530;49.968;19.844;2022-08-01T14:36:10;7.68;;;4.68;;
20739;SDS011;10530;49.968;19.844;2022-08-01T14:41:31;7.15;;;4.40;;
20739;SDS011;10530;49.968;19.844;2022-08-01T14:46:34;6.40;;;4.05;;
20739;SDS011;10530;49.968;19.844;2022-08-01T14:51:52;6.53;;;4.50;;
20739;SDS011;10530;49.968;19.844;2022-08-01T14:56:55;7.83;;;4.57;;
20739;SDS011;10530;49.968;19.844;2022-08-01T15:01:58;6.63;;;4.70;;
20739;SDS011;10530;49.968;19.844;2022-08-01T15:07:01;6.60;;;4.68;;
20739;SDS011;10530;49.968;19.844;2022-08-01T15:12:04;8.23;;;5.20;;
20739;SDS011;10530;49.968;19.844;2022-08-01T15:17:08;7.20;;;4.75;;
20739;SDS011;10530;49.968;19.844;2022-08-01T15:22:11;6.93;;;4.40;;
20739;SDS011;10530;49.968;19.844;2022-08-01T15:27:14;5.85;;;4.30;;
20739;SDS011;10530;49.968;19.844;2022-08-01T15:32:17;7.13;;;4.30;;
20739;SDS011;10530;49.968;19.844;2022-08-01T15:37:21;5.63;;;3.47;;
20739;SDS011;10530;49.968;19.844;2022-08-01T15:42:24;6.70;;;3.90;;
20739;SDS011;10530;49.968;19.844;2022-08-01T15:47:28;8.07;;;3.93;;
20739;SDS011;10530;49.968;19.844;2022-08-01T15:52:30;6.72;;;4.20;;
20739;SDS011;10530;49.968;19.844;2022-08-01T15:57:33;7.95;;;4.90;;
20739;SDS011;10530;49.968;19.844;2022-08-01T16:02:36;6.18;;;4.00;;
20739;SDS011;10530;49.968;19.844;2022-08-01T16:07:40;6.68;;;4.18;;
20739;SDS011;10530;49.968;19.844;2022-08-01T16:13:02;6.23;;;4.30;;
20739;SDS011;10530;49.968;19.844;2022-08-01T16:18:09;6.63;;;3.97;;
20739;SDS011;10530;49.968;19.844;2022-08-01T16:23:14;7.75;;;4.30;;
20739;SDS011;10530;49.968;19.844;2022-08-01T16:28:17;7.38;;;4.40;;
20739;SDS011;10530;49.968;19.844;2022-08-01T16:33:20;7.50;;;4.18;;
20739;SDS011;10530;49.968;19.844;2022-08-01T16:38:44;7.67;;;4.63;;
20739;SDS011;10530;49.968;19.844;2022-08-01T16:43:48;6.22;;;4.22;;
20739;SDS011;10530;49.968;19.844;2022-08-01T16:48:55;8.80;;;4.70;;
20739;SDS011;10530;49.968;19.844;2022-08-01T16:53:58;7.60;;;4.57;;
20739;SDS011;10530;49.968;19.844;2022-08-01T16:59:01;7.07;;;4.28;;
20739;SDS011;10530;49.968;19.844;2022-08-01T17:04:08;7.73;;;4.63;;
20739;SDS011;10530;49.968;19.844;2022-08-01T17:09:11;8.65;;;4.82;;
20739;SDS011;10530;49.968;19.844;2022-08-01T17:14:14;10.35;;;5.72;;
20739;SDS011;10530;49.968;19.844;2022-08-01T17:19:17;9.85;;;6.20;;
20739;SDS011;10530;49.968;19.844;2022-08-01T17:24:27;9.75;;;5.88;;
20739;SDS011;10530;49.968;19.844;2022-08-01T17:29:30;9.80;;;6.37;;
20739;SDS011;10530;49.968;19.844;2022-08-01T17:34:45;9.35;;;5.95;;
20739;SDS011;10530;49.968;19.844;2022-08-01T17:39:48;12.10;;;6.93;;
20739;SDS011;10530;49.968;19.844;2022-08-01T17:44:50;11.38;;;6.85;;
20739;SDS011;10530;49.968;19.844;2022-08-01T17:49:54;10.73;;;6.47;;
20739;SDS011;10530;49.968;19.844;2022-08-01T17:54:58;13.60;;;7.27;;
20739;SDS011;10530;49.968;19.844;2022-08-01T18:00:02;15.52;;;8.50;;
20739;SDS011;10530;49.968;19.844;2022-08-01T18:05:08;13.00;;;7.22;;
20739;SDS011;10530;49.968;19.844;2022-08-01T18:10:11;12.68;;;7.43;;
20739;SDS011;10530;49.968;19.844;2022-08-01T18:15:17;13.30;;;7.65;;
20739;SDS011;10530;49.968;19.844;2022-08-01T18:20:27;13.80;;;7.47;;
20739;SDS011;10530;49.968;19.844;2022-08-01T18:25:31;15.35;;;8.13;;
20739;SDS011;10530;49.968;19.844;2022-08-01T18:30:35;15.38;;;8.18;;
20739;SDS011;10530;49.968;19.844;2022-08-01T18:35:38;15.63;;;8.23;;
20739;SDS011;10530;49.968;19.844;2022-08-01T18:40:54;15.23;;;7.78;;
20739;SDS011;10530;49.968;19.844;2022-08-01T18:45:58;14.50;;;8.13;;
20739;SDS011;10530;49.968;19.844;2022-08-01T18:51:02;14.00;;;8.35;;
20739;SDS011;10530;49.968;19.844;2022-08-01T18:56:09;14.02;;;8.52;;
20739;SDS011;10530;49.968;19.844;2022-08-01T19:01:15;14.05;;;8.30;;
20739;SDS011;10530;49.968;19.844;2022-08-01T19:06:18;14.43;;;8.18;;
20739;SDS011;10530;49.968;19.844;2022-08-01T19:11:21;15.23;;;8.90;;
20739;SDS011;10530;49.968;19.844;2022-08-01T19:16:25;17.38;;;8.98;;
20739;SDS011;10530;49.968;19.844;2022-08-01T19:21:28;14.43;;;8.40;;
20739;SDS011;10530;49.968;19.844;2022-08-01T19:26:32;15.27;;;7.93;;
20739;SDS011;10530;49.968;19.844;2022-08-01T19:31:38;16.08;;;8.57;;
20739;SDS011;10530;49.968;19.844;2022-08-01T19:36:51;15.27;;;8.20;;
20739;SDS011;10530;49.968;19.844;2022-08-01T19:41:56;15.50;;;8.90;;
20739;SDS011;10530;49.968;19.844;2022-08-01T19:47:00;15.70;;;8.23;;
20739;SDS011;10530;49.968;19.844;2022-08-01T19:52:03;15.10;;;8.02;;
20739;SDS011;10530;49.968;19.844;2022-08-01T19:57:07;15.95;;;9.02;;
20739;SDS011;10530;49.968;19.844;2022-08-01T20:02:17;15.60;;;8.20;;
20739;SDS011;10530;49.968;19.844;2022-08-01T20:07:23;16.95;;;9.43;;
20739;SDS011;10530;49.968;19.844;2022-08-01T20:12:29;15.93;;;9.45;;
20739;SDS011;10530;49.968;19.844;2022-08-01T20:17:32;15.55;;;8.57;;
20739;SDS011;10530;49.968;19.844;2022-08-01T20:22:35;17.02;;;8.90;;
20739;SDS011;10530;49.968;19.844;2022-08-01T20:27:41;16.50;;;9.63;;
20739;SDS011;10530;49.968;19.844;2022-08-01T20:32:47;16.42;;;9.65;;
20739;SDS011;10530;49.968;19.844;2022-08-01T20:37:51;18.25;;;9.70;;
20739;SDS011;10530;49.968;19.844;2022-08-01T20:43:08;15.23;;;9.13;;
20739;SDS011;10530;49.968;19.844;2022-08-01T20:48:11;16.88;;;9.68;;
20739;SDS011;10530;49.968;19.844;2022-08-01T20:53:16;17.87;;;9.00;;
20739;SDS011;10530;49.968;19.844;2022-08-01T20:58:22;18.83;;;9.85;;
20739;SDS011;10530;49.968;19.844;2022-08-01T21:09:16;15.43;;;8.70;;
20739;SDS011;10530;49.968;19.844;2022-08-01T21:14:25;17.30;;;8.98;;
20739;SDS011;10530;49.968;19.844;2022-08-01T21:19:42;16.73;;;8.60;;
20739;SDS011;10530;49.968;19.844;2022-08-01T21:24:52;15.10;;;9.20;;
20739;SDS011;10530;49.968;19.844;2022-08-01T21:30:04;18.85;;;9.50;;
20739;SDS011;10530;49.968;19.844;2022-08-01T21:35:09;17.52;;;9.00;;
20739;SDS011;10530;49.968;19.844;2022-08-01T21:40:19;17.50;;;8.95;;
20739;SDS011;10530;49.968;19.844;2022-08-01T21:45:26;21.03;;;9.87;;
20739;SDS011;10530;49.968;19.844;2022-08-01T21:50:32;16.88;;;8.73;;
20739;SDS011;10530;49.968;19.844;2022-08-01T21:55:47;16.25;;;9.07;;
20739;SDS011;10530;49.968;19.844;2022-08-01T22:06:53;17.75;;;9.82;;
20739;SDS011;10530;49.968;19.844;2022-08-01T22:11:58;16.43;;;9.47;;
20739;SDS011;10530;49.968;19.844;2022-08-01T22:17:07;18.17;;;10.15;;
20739;SDS011;10530;49.968;19.844;2022-08-01T22:22:16;17.15;;;9.88;;
20739;SDS011;10530;49.968;19.844;2022-08-01T22:27:39;17.33;;;9.98;;
20739;SDS011;10530;49.968;19.844;2022-08-01T22:33:05;20.02;;;10.10;;
20739;SDS011;10530;49.968;19.844;2022-08-01T22:38:18;22.20;;;11.57;;
20739;SDS011;10530;49.968;19.844;2022-08-01T22:43:24;20.27;;;10.57;;
20739;SDS011;10530;49.968;19.844;2022-08-01T22:48:39;18.60;;;10.85;;
20739;SDS011;10530;49.968;19.844;2022-08-01T22:54:11;22.83;;;11.13;;
20739;SDS011;10530;49.968;19.844;2022-08-01T22:59:22;20.02;;;10.43;;
20739;SDS011;10530;49.968;19.844;2022-08-01T23:04:47;21.17;;;11.20;;
20739;SDS011;10530;49.968;19.844;2022-08-01T23:09:51;19.63;;;11.27;;
20739;SDS011;10530;49.968;19.844;2022-08-01T23:14:56;21.48;;;10.88;;
20739;SDS011;10530;49.968;19.844;2022-08-01T23:20:01;21.67;;;11.20;;
20739;SDS011;10530;49.968;19.844;2022-08-01T23:25:08;23.13;;;11.80;;
20739;SDS011;10530;49.968;19.844;2022-08-01T23:30:12;21.37;;;11.10;;
20739;SDS011;10530;49.968;19.844;2022-08-01T23:35:15;20.40;;;10.70;;
20739;SDS011;10530;49.968;19.844;2022-08-01T23:40:18;18.80;;;10.55;;
20739;SDS011;10530;49.968;19.844;2022-08-01T23:45:25;18.92;;;10.18;;
20739;SDS011;10530;49.968;19.844;2022-08-01T23:50:49;21.63;;;10.45;;
20739;SDS011;10530;49.968;19.844;2022-08-01T23:55:51;18.70;;;10.37;;
